sensor_id;sensor_type;location;lat;lon;timestamp;temperature;humidity
52621;DHT22;38515;53.160;6.990;2023-09-18T00:00:28;17.80;99.90
52621;DHT22;38515;53.160;6.990;2023-09-18T00:02:55;18.00;99.90
52621;DHT22;38515;53.160;6.990;2023-09-18T00:05:21;17.90;99.90
52621;DHT22;38515;53.160;6.990;2023-09-18T00:07:48;17.80;99.90
52621;DHT22;38515;53.160;6.990;2023-09-18T00:10:14;17.70;99.90
52621;DHT22;38515;53.160;6.990;2023-09-18T00:12:40;17.70;99.90
52621;DHT22;38515;53.160;6.990;2023-09-18T00:15:06;17.80;99.90
52621;DHT22;38515;53.160;6.990;2023-09-18T00:17:35;17.70;99.90
52621;DHT22;38515;53.160;6.990;2023-09-18T00:20:01;17.50;99.90
52621;DHT22;38515;53.160;6.990;2023-09-18T00:22:28;17.60;99.90
52621;DHT22;38515;53.160;6.990;2023-09-18T00:24:54;17.50;99.90
52621;DHT22;38515;53.160;6.990;2023-09-18T00:27:20;17.50;99.90
52621;DHT22;38515;53.160;6.990;2023-09-18T00:29:46;17.50;99.90
52621;DHT22;38515;53.160;6.990;2023-09-18T00:32:12;17.40;99.90
52621;DHT22;38515;53.160;6.990;2023-09-18T00:34:37;17.50;99.90
52621;DHT22;38515;53.160;6.990;2023-09-18T00:37:03;17.50;99.90
52621;DHT22;38515;53.160;6.990;2023-09-18T00:39:29;17.50;99.90
52621;DHT22;38515;53.160;6.990;2023-09-18T00:41:57;17.30;99.90
52621;DHT22;38515;53.160;6.990;2023-09-18T00:44:24;17.40;99.90
52621;DHT22;38515;53.160;6.990;2023-09-18T00:46:52;17.60;99.90
52621;DHT22;38515;53.160;6.990;2023-09-18T00:49:21;17.40;99.90
52621;DHT22;38515;53.160;6.990;2023-09-18T00:51:47;17.50;99.90
52621;DHT22;38515;53.160;6.990;2023-09-18T00:54:16;17.30;99.90
52621;DHT22;38515;53.160;6.990;2023-09-18T00:56:45;17.60;99.90
52621;DHT22;38515;53.160;6.990;2023-09-18T00:59:12;17.60;99.90
52621;DHT22;38515;53.160;6.990;2023-09-18T01:01:40;17.60;99.90
52621;DHT22;38515;53.160;6.990;2023-09-18T01:04:06;17.60;99.90
52621;DHT22;38515;53.160;6.990;2023-09-18T01:06:33;17.50;99.90
52621;DHT22;38515;53.160;6.990;2023-09-18T01:08:59;17.70;99.90
52621;DHT22;38515;53.160;6.990;2023-09-18T01:14:31;17.70;99.90
52621;DHT22;38515;53.160;6.990;2023-09-18T01:17:00;17.60;99.90
52621;DHT22;38515;53.160;6.990;2023-09-18T01:19:46;17.70;99.90
52621;DHT22;38515;53.160;6.990;2023-09-18T01:22:18;17.50;99.90
52621;DHT22;38515;53.160;6.990;2023-09-18T01:24:45;17.60;99.90
52621;DHT22;38515;53.160;6.990;2023-09-18T01:27:17;17.70;99.90
52621;DHT22;38515;53.160;6.990;2023-09-18T01:29:47;17.50;99.90
52621;DHT22;38515;53.160;6.990;2023-09-18T01:32:13;17.50;99.90
52621;DHT22;38515;53.160;6.990;2023-09-18T01:34:51;17.70;99.90
52621;DHT22;38515;53.160;6.990;2023-09-18T01:37:21;17.60;99.90
52621;DHT22;38515;53.160;6.990;2023-09-18T01:39:50;17.70;99.90
52621;DHT22;38515;53.160;6.990;2023-09-18T01:42:17;17.50;99.90
52621;DHT22;38515;53.160;6.990;2023-09-18T01:44:45;17.70;99.90
52621;DHT22;38515;53.160;6.990;2023-09-18T01:47:15;17.60;99.90
52621;DHT22;38515;53.160;6.990;2023-09-18T01:49:42;17.50;99.90
52621;DHT22;38515;53.160;6.990;2023-09-18T01:52:09;17.50;99.90
52621;DHT22;38515;53.160;6.990;2023-09-18T01:54:35;17.60;99.90
52621;DHT22;38515;53.160;6.990;2023-09-18T01:57:02;17.70;99.90
52621;DHT22;38515;53.160;6.990;2023-09-18T01:59:29;17.60;99.90
52621;DHT22;38515;53.160;6.990;2023-09-18T02:01:55;17.60;99.90
52621;DHT22;38515;53.160;6.990;2023-09-18T02:04:22;17.60;99.90
52621;DHT22;38515;53.160;6.990;2023-09-18T02:06:51;17.80;99.90
52621;DHT22;38515;53.160;6.990;2023-09-18T02:09:18;17.70;99.90
52621;DHT22;38515;53.160;6.990;2023-09-18T02:11:45;17.80;99.90
52621;DHT22;38515;53.160;6.990;2023-09-18T02:14:11;17.80;99.90
52621;DHT22;38515;53.160;6.990;2023-09-18T02:16:39;17.90;99.90
52621;DHT22;38515;53.160;6.990;2023-09-18T02:19:10;17.90;99.90
52621;DHT22;38515;53.160;6.990;2023-09-18T02:21:36;17.90;99.90
52621;DHT22;38515;53.160;6.990;2023-09-18T02:24:03;18.00;99.90
52621;DHT22;38515;53.160;6.990;2023-09-18T02:26:29;17.90;99.90
52621;DHT22;38515;53.160;6.990;2023-09-18T02:28:58;18.00;99.90
52621;DHT22;38515;53.160;6.990;2023-09-18T02:31:24;18.00;99.90
52621;DHT22;38515;53.160;6.990;2023-09-18T02:33:50;17.90;99.90
52621;DHT22;38515;53.160;6.990;2023-09-18T02:36:16;17.90;99.90
52621;DHT22;38515;53.160;6.990;2023-09-18T02:38:42;17.90;99.90
52621;DHT22;38515;53.160;6.990;2023-09-18T02:41:09;17.90;99.90
52621;DHT22;38515;53.160;6.990;2023-09-18T02:43:35;17.70;99.90
52621;DHT22;38515;53.160;6.990;2023-09-18T02:46:04;18.00;99.90
52621;DHT22;38515;53.160;6.990;2023-09-18T02:48:31;18.10;99.90
52621;DHT22;38515;53.160;6.990;2023-09-18T02:50:58;17.80;99.90
52621;DHT22;38515;53.160;6.990;2023-09-18T02:53:24;18.10;99.90
52621;DHT22;38515;53.160;6.990;2023-09-18T02:55:51;18.00;99.90
52621;DHT22;38515;53.160;6.990;2023-09-18T02:58:18;18.10;99.90
52621;DHT22;38515;53.160;6.990;2023-09-18T03:00:52;18.10;99.90
52621;DHT22;38515;53.160;6.990;2023-09-18T03:03:21;18.10;99.90
52621;DHT22;38515;53.160;6.990;2023-09-18T03:05:47;18.00;99.90
52621;DHT22;38515;53.160;6.990;2023-09-18T03:08:14;18.00;99.90
52621;DHT22;38515;53.160;6.990;2023-09-18T03:10:43;17.90;99.90
52621;DHT22;38515;53.160;6.990;2023-09-18T03:13:11;18.00;99.90
52621;DHT22;38515;53.160;6.990;2023-09-18T03:15:37;18.00;99.90
52621;DHT22;38515;53.160;6.990;2023-09-18T03:18:05;18.00;99.90
52621;DHT22;38515;53.160;6.990;2023-09-18T03:20:31;18.00;99.90
52621;DHT22;38515;53.160;6.990;2023-09-18T03:22:59;18.10;99.90
52621;DHT22;38515;53.160;6.990;2023-09-18T03:25:25;18.00;99.90
52621;DHT22;38515;53.160;6.990;2023-09-18T03:27:53;18.00;99.90
52621;DHT22;38515;53.160;6.990;2023-09-18T03:30:20;18.00;99.90
52621;DHT22;38515;53.160;6.990;2023-09-18T03:32:47;18.10;99.90
52621;DHT22;38515;53.160;6.990;2023-09-18T03:35:14;18.00;99.90
52621;DHT22;38515;53.160;6.990;2023-09-18T03:37:51;17.90;99.90
52621;DHT22;38515;53.160;6.990;2023-09-18T03:40:18;18.10;99.90
52621;DHT22;38515;53.160;6.990;2023-09-18T03:42:47;18.00;99.90
52621;DHT22;38515;53.160;6.990;2023-09-18T03:45:14;18.10;99.90
52621;DHT22;38515;53.160;6.990;2023-09-18T03:47:41;17.90;99.90
52621;DHT22;38515;53.160;6.990;2023-09-18T03:50:08;18.00;99.90
52621;DHT22;38515;53.160;6.990;2023-09-18T03:52:35;18.00;99.90
52621;DHT22;38515;53.160;6.990;2023-09-18T03:55:01;18.10;99.90
52621;DHT22;38515;53.160;6.990;2023-09-18T03:57:27;18.00;99.90
52621;DHT22;38515;53.160;6.990;2023-09-18T03:59:55;17.90;99.90
52621;DHT22;38515;53.160;6.990;2023-09-18T04:02:25;18.00;99.90
52621;DHT22;38515;53.160;6.990;2023-09-18T04:04:53;18.00;99.90
52621;DHT22;38515;53.160;6.990;2023-09-18T04:07:19;18.00;99.90
52621;DHT22;38515;53.160;6.990;2023-09-18T04:09:46;18.10;99.90
52621;DHT22;38515;53.160;6.990;2023-09-18T04:12:12;18.00;99.90
52621;DHT22;38515;53.160;6.990;2023-09-18T04:14:38;18.00;99.90
52621;DHT22;38515;53.160;6.990;2023-09-18T04:17:04;18.00;99.90
52621;DHT22;38515;53.160;6.990;2023-09-18T04:19:30;18.10;99.90
52621;DHT22;38515;53.160;6.990;2023-09-18T04:21:56;18.00;99.90
52621;DHT22;38515;53.160;6.990;2023-09-18T04:24:22;18.00;99.90
52621;DHT22;38515;53.160;6.990;2023-09-18T04:26:49;18.20;99.90
52621;DHT22;38515;53.160;6.990;2023-09-18T04:29:19;18.10;99.90
52621;DHT22;38515;53.160;6.990;2023-09-18T04:31:45;18.10;99.90
52621;DHT22;38515;53.160;6.990;2023-09-18T04:34:11;18.10;99.90
52621;DHT22;38515;53.160;6.990;2023-09-18T04:36:37;18.20;99.90
52621;DHT22;38515;53.160;6.990;2023-09-18T04:39:06;18.00;99.90
52621;DHT22;38515;53.160;6.990;2023-09-18T04:41:32;18.00;99.90
52621;DHT22;38515;53.160;6.990;2023-09-18T04:43:59;18.20;99.90
52621;DHT22;38515;53.160;6.990;2023-09-18T04:46:25;18.10;99.90
52621;DHT22;38515;53.160;6.990;2023-09-18T04:48:51;18.20;99.90
52621;DHT22;38515;53.160;6.990;2023-09-18T04:51:17;18.20;99.90
52621;DHT22;38515;53.160;6.990;2023-09-18T04:53:43;18.20;99.90
52621;DHT22;38515;53.160;6.990;2023-09-18T04:56:09;18.20;99.90
52621;DHT22;38515;53.160;6.990;2023-09-18T04:58:38;18.20;99.90
52621;DHT22;38515;53.160;6.990;2023-09-18T05:01:04;18.20;99.90
52621;DHT22;38515;53.160;6.990;2023-09-18T05:03:33;18.30;99.90
52621;DHT22;38515;53.160;6.990;2023-09-18T05:05:59;18.30;99.90
52621;DHT22;38515;53.160;6.990;2023-09-18T05:08:25;18.20;99.90
52621;DHT22;38515;53.160;6.990;2023-09-18T05:10:51;18.20;99.90
52621;DHT22;38515;53.160;6.990;2023-09-18T05:13:17;18.20;99.90
52621;DHT22;38515;53.160;6.990;2023-09-18T05:15:44;18.30;99.90
52621;DHT22;38515;53.160;6.990;2023-09-18T05:18:10;18.20;99.90
52621;DHT22;38515;53.160;6.990;2023-09-18T05:20:36;18.30;99.90
52621;DHT22;38515;53.160;6.990;2023-09-18T05:23:02;18.40;99.90
52621;DHT22;38515;53.160;6.990;2023-09-18T05:25:29;18.40;99.90
52621;DHT22;38515;53.160;6.990;2023-09-18T05:28:00;18.40;99.90
52621;DHT22;38515;53.160;6.990;2023-09-18T05:30:34;18.40;99.90
52621;DHT22;38515;53.160;6.990;2023-09-18T05:33:04;18.30;99.90
52621;DHT22;38515;53.160;6.990;2023-09-18T05:35:34;18.30;99.90
52621;DHT22;38515;53.160;6.990;2023-09-18T05:38:03;18.40;99.90
52621;DHT22;38515;53.160;6.990;2023-09-18T05:40:29;18.50;99.90
52621;DHT22;38515;53.160;6.990;2023-09-18T05:42:56;18.30;99.90
52621;DHT22;38515;53.160;6.990;2023-09-18T05:45:22;18.40;99.90
52621;DHT22;38515;53.160;6.990;2023-09-18T05:47:49;18.30;99.90
52621;DHT22;38515;53.160;6.990;2023-09-18T05:50:16;18.40;99.90
52621;DHT22;38515;53.160;6.990;2023-09-18T05:52:48;18.40;99.90
52621;DHT22;38515;53.160;6.990;2023-09-18T05:55:17;18.30;99.90
52621;DHT22;38515;53.160;6.990;2023-09-18T05:57:43;18.40;99.90
52621;DHT22;38515;53.160;6.990;2023-09-18T06:00:09;18.40;99.90
52621;DHT22;38515;53.160;6.990;2023-09-18T06:02:39;18.40;99.90
52621;DHT22;38515;53.160;6.990;2023-09-18T06:05:06;18.40;99.90
52621;DHT22;38515;53.160;6.990;2023-09-18T06:07:32;18.50;99.90
52621;DHT22;38515;53.160;6.990;2023-09-18T06:09:59;18.40;99.90
52621;DHT22;38515;53.160;6.990;2023-09-18T06:12:25;18.50;99.90
52621;DHT22;38515;53.160;6.990;2023-09-18T06:14:51;18.40;99.90
52621;DHT22;38515;53.160;6.990;2023-09-18T06:17:18;18.40;99.90
52621;DHT22;38515;53.160;6.990;2023-09-18T06:19:45;18.50;99.90
52621;DHT22;38515;53.160;6.990;2023-09-18T06:22:11;18.40;99.90
52621;DHT22;38515;53.160;6.990;2023-09-18T06:24:37;18.60;99.90
52621;DHT22;38515;53.160;6.990;2023-09-18T06:27:04;18.50;99.90
52621;DHT22;38515;53.160;6.990;2023-09-18T06:29:33;18.60;99.90
52621;DHT22;38515;53.160;6.990;2023-09-18T06:32:00;18.50;99.90
52621;DHT22;38515;53.160;6.990;2023-09-18T06:34:26;18.60;99.90
52621;DHT22;38515;53.160;6.990;2023-09-18T06:36:54;18.50;99.90
52621;DHT22;38515;53.160;6.990;2023-09-18T06:39:20;18.40;99.90
52621;DHT22;38515;53.160;6.990;2023-09-18T06:41:50;18.50;99.90
52621;DHT22;38515;53.160;6.990;2023-09-18T06:44:16;18.40;99.90
52621;DHT22;38515;53.160;6.990;2023-09-18T06:46:41;18.50;99.90
52621;DHT22;38515;53.160;6.990;2023-09-18T06:49:07;18.60;99.90
52621;DHT22;38515;53.160;6.990;2023-09-18T06:51:33;18.60;99.90
52621;DHT22;38515;53.160;6.990;2023-09-18T06:53:59;18.50;99.90
52621;DHT22;38515;53.160;6.990;2023-09-18T06:56:28;18.50;99.90
52621;DHT22;38515;53.160;6.990;2023-09-18T06:58:54;18.70;99.90
52621;DHT22;38515;53.160;6.990;2023-09-18T07:01:21;18.60;99.90
52621;DHT22;38515;53.160;6.990;2023-09-18T07:03:47;18.60;99.90
52621;DHT22;38515;53.160;6.990;2023-09-18T07:06:16;18.60;99.90
52621;DHT22;38515;53.160;6.990;2023-09-18T07:08:44;18.70;99.90
52621;DHT22;38515;53.160;6.990;2023-09-18T07:11:10;18.70;99.90
52621;DHT22;38515;53.160;6.990;2023-09-18T07:13:37;18.90;99.90
52621;DHT22;38515;53.160;6.990;2023-09-18T07:16:04;18.90;99.90
52621;DHT22;38515;53.160;6.990;2023-09-18T07:18:30;18.90;99.90
52621;DHT22;38515;53.160;6.990;2023-09-18T07:20:55;18.80;99.90
52621;DHT22;38515;53.160;6.990;2023-09-18T07:23:21;18.90;99.90
52621;DHT22;38515;53.160;6.990;2023-09-18T07:25:48;18.80;99.90
52621;DHT22;38515;53.160;6.990;2023-09-18T07:28:14;18.60;99.90
52621;DHT22;38515;53.160;6.990;2023-09-18T07:30:43;18.60;99.90
52621;DHT22;38515;53.160;6.990;2023-09-18T07:33:13;18.60;99.90
52621;DHT22;38515;53.160;6.990;2023-09-18T07:35:47;18.70;99.90
52621;DHT22;38515;53.160;6.990;2023-09-18T07:38:13;18.50;99.90
52621;DHT22;38515;53.160;6.990;2023-09-18T07:40:39;18.60;99.90
52621;DHT22;38515;53.160;6.990;2023-09-18T07:43:05;18.70;99.90
52621;DHT22;38515;53.160;6.990;2023-09-18T07:45:31;18.70;99.90
52621;DHT22;38515;53.160;6.990;2023-09-18T07:47:57;18.70;99.90
52621;DHT22;38515;53.160;6.990;2023-09-18T07:50:23;18.70;99.90
52621;DHT22;38515;53.160;6.990;2023-09-18T07:52:48;18.70;99.90
52621;DHT22;38515;53.160;6.990;2023-09-18T07:55:15;18.60;99.90
52621;DHT22;38515;53.160;6.990;2023-09-18T07:57:41;18.70;99.90
52621;DHT22;38515;53.160;6.990;2023-09-18T08:00:07;18.70;99.90
52621;DHT22;38515;53.160;6.990;2023-09-18T08:02:38;18.90;99.90
52621;DHT22;38515;53.160;6.990;2023-09-18T08:05:05;18.90;99.90
52621;DHT22;38515;53.160;6.990;2023-09-18T08:07:31;18.90;99.90
52621;DHT22;38515;53.160;6.990;2023-09-18T08:09:57;19.10;99.90
52621;DHT22;38515;53.160;6.990;2023-09-18T08:12:23;19.10;99.90
52621;DHT22;38515;53.160;6.990;2023-09-18T08:14:50;19.10;99.90
52621;DHT22;38515;53.160;6.990;2023-09-18T08:17:16;19.10;99.90
52621;DHT22;38515;53.160;6.990;2023-09-18T08:19:42;19.10;99.90
52621;DHT22;38515;53.160;6.990;2023-09-18T08:22:10;19.30;99.90
52621;DHT22;38515;53.160;6.990;2023-09-18T08:24:40;19.10;99.90
52621;DHT22;38515;53.160;6.990;2023-09-18T08:27:07;19.10;99.90
52621;DHT22;38515;53.160;6.990;2023-09-18T08:29:33;19.20;99.90
52621;DHT22;38515;53.160;6.990;2023-09-18T08:31:58;19.30;99.90
52621;DHT22;38515;53.160;6.990;2023-09-18T08:34:24;19.20;99.90
52621;DHT22;38515;53.160;6.990;2023-09-18T08:36:50;19.20;99.90
52621;DHT22;38515;53.160;6.990;2023-09-18T08:39:16;19.40;99.90
52621;DHT22;38515;53.160;6.990;2023-09-18T08:41:42;19.40;99.90
52621;DHT22;38515;53.160;6.990;2023-09-18T08:44:09;19.20;99.90
52621;DHT22;38515;53.160;6.990;2023-09-18T08:46:37;19.40;99.90
52621;DHT22;38515;53.160;6.990;2023-09-18T08:49:04;19.30;99.90
52621;DHT22;38515;53.160;6.990;2023-09-18T08:51:31;19.20;99.90
52621;DHT22;38515;53.160;6.990;2023-09-18T08:53:58;19.20;99.90
52621;DHT22;38515;53.160;6.990;2023-09-18T08:56:24;19.20;99.90
52621;DHT22;38515;53.160;6.990;2023-09-18T08:58:50;19.20;99.90
52621;DHT22;38515;53.160;6.990;2023-09-18T09:01:18;19.20;99.90
52621;DHT22;38515;53.160;6.990;2023-09-18T09:03:51;19.20;99.90
52621;DHT22;38515;53.160;6.990;2023-09-18T09:06:17;19.00;99.90
52621;DHT22;38515;53.160;6.990;2023-09-18T09:08:46;18.90;99.90
52621;DHT22;38515;53.160;6.990;2023-09-18T09:11:12;19.00;99.90
52621;DHT22;38515;53.160;6.990;2023-09-18T09:13:38;19.20;99.90
52621;DHT22;38515;53.160;6.990;2023-09-18T09:16:04;19.00;99.90
52621;DHT22;38515;53.160;6.990;2023-09-18T09:18:30;19.20;99.90
52621;DHT22;38515;53.160;6.990;2023-09-18T09:21:03;19.00;99.90
52621;DHT22;38515;53.160;6.990;2023-09-18T09:23:46;19.20;99.90
52621;DHT22;38515;53.160;6.990;2023-09-18T09:26:16;19.10;99.90
52621;DHT22;38515;53.160;6.990;2023-09-18T09:28:43;19.30;99.90
52621;DHT22;38515;53.160;6.990;2023-09-18T09:31:10;19.10;99.90
52621;DHT22;38515;53.160;6.990;2023-09-18T09:33:37;19.10;99.90
52621;DHT22;38515;53.160;6.990;2023-09-18T09:36:05;19.20;99.90
52621;DHT22;38515;53.160;6.990;2023-09-18T09:38:33;19.10;99.90
52621;DHT22;38515;53.160;6.990;2023-09-18T09:41:04;19.30;99.90
52621;DHT22;38515;53.160;6.990;2023-09-18T09:43:35;19.40;99.90
52621;DHT22;38515;53.160;6.990;2023-09-18T09:46:01;19.30;99.90
52621;DHT22;38515;53.160;6.990;2023-09-18T09:48:28;19.20;99.90
52621;DHT22;38515;53.160;6.990;2023-09-18T09:50:58;19.60;99.90
52621;DHT22;38515;53.160;6.990;2023-09-18T09:53:46;19.50;99.90
52621;DHT22;38515;53.160;6.990;2023-09-18T09:56:14;19.40;99.90
52621;DHT22;38515;53.160;6.990;2023-09-18T09:59:00;19.30;99.90
52621;DHT22;38515;53.160;6.990;2023-09-18T10:01:30;19.30;99.90
52621;DHT22;38515;53.160;6.990;2023-09-18T10:03:57;19.40;99.90
52621;DHT22;38515;53.160;6.990;2023-09-18T10:06:24;19.50;99.90
52621;DHT22;38515;53.160;6.990;2023-09-18T10:08:51;19.60;99.90
52621;DHT22;38515;53.160;6.990;2023-09-18T10:11:24;20.00;99.90
52621;DHT22;38515;53.160;6.990;2023-09-18T10:13:59;19.90;99.90
52621;DHT22;38515;53.160;6.990;2023-09-18T10:16:26;19.90;99.90
52621;DHT22;38515;53.160;6.990;2023-09-18T10:22:11;20.10;99.90
52621;DHT22;38515;53.160;6.990;2023-09-18T10:24:44;20.30;99.90
52621;DHT22;38515;53.160;6.990;2023-09-18T10:27:13;20.30;99.90
52621;DHT22;38515;53.160;6.990;2023-09-18T10:29:41;20.40;99.90
52621;DHT22;38515;53.160;6.990;2023-09-18T10:32:08;20.50;99.90
52621;DHT22;38515;53.160;6.990;2023-09-18T10:34:34;20.30;99.90
52621;DHT22;38515;53.160;6.990;2023-09-18T10:37:03;20.70;99.90
52621;DHT22;38515;53.160;6.990;2023-09-18T10:39:35;21.00;99.90
52621;DHT22;38515;53.160;6.990;2023-09-18T10:42:03;20.90;99.90
52621;DHT22;38515;53.160;6.990;2023-09-18T10:44:36;21.20;99.90
52621;DHT22;38515;53.160;6.990;2023-09-18T10:47:04;20.40;99.90
52621;DHT22;38515;53.160;6.990;2023-09-18T10:49:34;20.90;99.90
52621;DHT22;38515;53.160;6.990;2023-09-18T10:52:01;20.50;99.90
52621;DHT22;38515;53.160;6.990;2023-09-18T10:54:29;21.20;99.90
52621;DHT22;38515;53.160;6.990;2023-09-18T10:56:56;20.90;99.90
52621;DHT22;38515;53.160;6.990;2023-09-18T10:59:23;20.60;99.90
52621;DHT22;38515;53.160;6.990;2023-09-18T11:01:49;20.60;99.90
52621;DHT22;38515;53.160;6.990;2023-09-18T11:04:19;21.20;99.90
52621;DHT22;38515;53.160;6.990;2023-09-18T11:09:24;21.20;99.90
52621;DHT22;38515;53.160;6.990;2023-09-18T11:12:03;21.20;99.90
52621;DHT22;38515;53.160;6.990;2023-09-18T11:14:42;21.60;99.90
52621;DHT22;38515;53.160;6.990;2023-09-18T11:17:42;21.40;99.90
52621;DHT22;38515;53.160;6.990;2023-09-18T11:22:40;21.60;99.90
52621;DHT22;38515;53.160;6.990;2023-09-18T11:28:25;21.40;99.90
52621;DHT22;38515;53.160;6.990;2023-09-18T11:31:02;21.50;99.90
52621;DHT22;38515;53.160;6.990;2023-09-18T11:33:41;21.60;99.90
52621;DHT22;38515;53.160;6.990;2023-09-18T11:38:52;21.60;99.90
52621;DHT22;38515;53.160;6.990;2023-09-18T11:41:28;21.50;99.90
52621;DHT22;38515;53.160;6.990;2023-09-18T11:46:47;21.40;99.90
52621;DHT22;38515;53.160;6.990;2023-09-18T11:49:23;21.40;99.90
52621;DHT22;38515;53.160;6.990;2023-09-18T11:51:52;21.30;99.90
52621;DHT22;38515;53.160;6.990;2023-09-18T11:54:18;21.20;99.90
52621;DHT22;38515;53.160;6.990;2023-09-18T11:56:45;21.20;99.90
52621;DHT22;38515;53.160;6.990;2023-09-18T11:59:11;21.20;99.90
52621;DHT22;38515;53.160;6.990;2023-09-18T12:01:38;21.40;99.90
52621;DHT22;38515;53.160;6.990;2023-09-18T12:04:05;21.20;99.90
52621;DHT22;38515;53.160;6.990;2023-09-18T12:06:41;21.30;99.90
52621;DHT22;38515;53.160;6.990;2023-09-18T12:09:08;21.10;99.90
52621;DHT22;38515;53.160;6.990;2023-09-18T12:11:34;21.20;99.90
52621;DHT22;38515;53.160;6.990;2023-09-18T12:14:01;21.30;99.90
52621;DHT22;38515;53.160;6.990;2023-09-18T12:16:31;21.50;99.90
52621;DHT22;38515;53.160;6.990;2023-09-18T12:19:03;21.70;99.90
52621;DHT22;38515;53.160;6.990;2023-09-18T12:21:32;21.80;99.90
52621;DHT22;38515;53.160;6.990;2023-09-18T12:23:58;21.60;99.90
52621;DHT22;38515;53.160;6.990;2023-09-18T12:26:25;21.50;99.90
52621;DHT22;38515;53.160;6.990;2023-09-18T12:28:51;21.50;99.90
52621;DHT22;38515;53.160;6.990;2023-09-18T12:31:17;21.50;99.90
52621;DHT22;38515;53.160;6.990;2023-09-18T12:33:44;21.40;99.90
52621;DHT22;38515;53.160;6.990;2023-09-18T12:36:18;21.30;99.90
52621;DHT22;38515;53.160;6.990;2023-09-18T12:38:56;21.10;99.90
52621;DHT22;38515;53.160;6.990;2023-09-18T12:41:25;21.00;99.90
52621;DHT22;38515;53.160;6.990;2023-09-18T12:43:51;20.70;99.90
52621;DHT22;38515;53.160;6.990;2023-09-18T12:46:18;20.50;99.90
52621;DHT22;38515;53.160;6.990;2023-09-18T12:48:48;20.50;99.90
52621;DHT22;38515;53.160;6.990;2023-09-18T12:51:14;20.50;99.90
52621;DHT22;38515;53.160;6.990;2023-09-18T12:53:42;20.30;99.90
52621;DHT22;38515;53.160;6.990;2023-09-18T12:56:12;20.40;99.90
52621;DHT22;38515;53.160;6.990;2023-09-18T12:58:41;20.70;99.90
52621;DHT22;38515;53.160;6.990;2023-09-18T13:01:09;20.90;99.90
52621;DHT22;38515;53.160;6.990;2023-09-18T13:03:46;21.00;99.90
52621;DHT22;38515;53.160;6.990;2023-09-18T13:06:16;21.10;99.90
52621;DHT22;38515;53.160;6.990;2023-09-18T13:08:46;21.10;99.90
52621;DHT22;38515;53.160;6.990;2023-09-18T13:11:13;21.20;99.90
52621;DHT22;38515;53.160;6.990;2023-09-18T13:13:42;21.30;99.90
52621;DHT22;38515;53.160;6.990;2023-09-18T13:16:10;21.40;99.90
52621;DHT22;38515;53.160;6.990;2023-09-18T13:18:37;21.30;99.90
52621;DHT22;38515;53.160;6.990;2023-09-18T13:21:14;21.40;99.90
52621;DHT22;38515;53.160;6.990;2023-09-18T13:23:40;21.40;99.90
52621;DHT22;38515;53.160;6.990;2023-09-18T13:26:07;21.50;99.90
52621;DHT22;38515;53.160;6.990;2023-09-18T13:28:34;21.60;99.90
52621;DHT22;38515;53.160;6.990;2023-09-18T13:31:04;21.60;99.90
52621;DHT22;38515;53.160;6.990;2023-09-18T13:33:31;21.70;99.90
52621;DHT22;38515;53.160;6.990;2023-09-18T13:35:59;21.70;99.90
52621;DHT22;38515;53.160;6.990;2023-09-18T13:38:25;21.80;99.90
52621;DHT22;38515;53.160;6.990;2023-09-18T13:40:54;21.80;99.90
52621;DHT22;38515;53.160;6.990;2023-09-18T13:43:20;21.80;99.90
52621;DHT22;38515;53.160;6.990;2023-09-18T13:45:48;21.90;99.90
52621;DHT22;38515;53.160;6.990;2023-09-18T13:48:17;21.90;99.90
52621;DHT22;38515;53.160;6.990;2023-09-18T13:50:43;21.90;99.90
52621;DHT22;38515;53.160;6.990;2023-09-18T13:53:09;21.80;99.90
52621;DHT22;38515;53.160;6.990;2023-09-18T13:55:35;21.80;99.90
52621;DHT22;38515;53.160;6.990;2023-09-18T13:58:02;21.80;99.90
52621;DHT22;38515;53.160;6.990;2023-09-18T14:00:29;21.90;99.90
52621;DHT22;38515;53.160;6.990;2023-09-18T14:02:55;21.80;99.90
52621;DHT22;38515;53.160;6.990;2023-09-18T14:05:22;21.90;99.90
52621;DHT22;38515;53.160;6.990;2023-09-18T14:07:48;21.90;99.90
52621;DHT22;38515;53.160;6.990;2023-09-18T14:10:15;21.90;99.90
52621;DHT22;38515;53.160;6.990;2023-09-18T14:12:44;21.90;99.90
52621;DHT22;38515;53.160;6.990;2023-09-18T14:15:10;21.80;99.90
52621;DHT22;38515;53.160;6.990;2023-09-18T14:17:36;21.80;99.90
52621;DHT22;38515;53.160;6.990;2023-09-18T14:20:06;21.70;99.90
52621;DHT22;38515;53.160;6.990;2023-09-18T14:22:33;21.70;99.90
52621;DHT22;38515;53.160;6.990;2023-09-18T14:24:59;21.70;99.90
52621;DHT22;38515;53.160;6.990;2023-09-18T14:27:25;21.70;99.90
52621;DHT22;38515;53.160;6.990;2023-09-18T14:29:51;21.70;99.90
52621;DHT22;38515;53.160;6.990;2023-09-18T14:32:17;21.70;99.90
52621;DHT22;38515;53.160;6.990;2023-09-18T14:34:44;21.70;99.90
52621;DHT22;38515;53.160;6.990;2023-09-18T14:37:11;21.70;99.90
52621;DHT22;38515;53.160;6.990;2023-09-18T14:39:37;21.70;99.90
52621;DHT22;38515;53.160;6.990;2023-09-18T14:42:03;21.60;99.90
52621;DHT22;38515;53.160;6.990;2023-09-18T14:44:28;21.60;99.90
52621;DHT22;38515;53.160;6.990;2023-09-18T14:46:56;21.70;99.90
52621;DHT22;38515;53.160;6.990;2023-09-18T14:49:22;21.70;99.90
52621;DHT22;38515;53.160;6.990;2023-09-18T14:51:48;21.70;99.90
52621;DHT22;38515;53.160;6.990;2023-09-18T14:54:16;21.80;99.90
52621;DHT22;38515;53.160;6.990;2023-09-18T14:56:42;21.70;99.90
52621;DHT22;38515;53.160;6.990;2023-09-18T14:59:08;21.80;99.90
52621;DHT22;38515;53.160;6.990;2023-09-18T15:01:34;21.80;99.90
52621;DHT22;38515;53.160;6.990;2023-09-18T15:04:00;21.80;99.90
52621;DHT22;38515;53.160;6.990;2023-09-18T15:06:26;21.80;99.90
52621;DHT22;38515;53.160;6.990;2023-09-18T15:08:55;21.70;99.90
52621;DHT22;38515;53.160;6.990;2023-09-18T15:11:24;21.60;99.90
52621;DHT22;38515;53.160;6.990;2023-09-18T15:13:50;21.50;99.90
52621;DHT22;38515;53.160;6.990;2023-09-18T15:16:16;21.40;99.90
52621;DHT22;38515;53.160;6.990;2023-09-18T15:18:42;21.40;99.90
52621;DHT22;38515;53.160;6.990;2023-09-18T15:21:14;21.50;99.90
52621;DHT22;38515;53.160;6.990;2023-09-18T15:23:40;21.50;99.90
52621;DHT22;38515;53.160;6.990;2023-09-18T15:26:06;21.60;99.90
52621;DHT22;38515;53.160;6.990;2023-09-18T15:28:32;21.70;99.90
52621;DHT22;38515;53.160;6.990;2023-09-18T15:31:00;21.80;99.90
52621;DHT22;38515;53.160;6.990;2023-09-18T15:33:26;21.80;99.90
52621;DHT22;38515;53.160;6.990;2023-09-18T15:35:55;21.90;99.90
52621;DHT22;38515;53.160;6.990;2023-09-18T15:38:22;21.90;99.90
52621;DHT22;38515;53.160;6.990;2023-09-18T15:40:51;22.00;99.90
52621;DHT22;38515;53.160;6.990;2023-09-18T15:43:16;22.00;99.90
52621;DHT22;38515;53.160;6.990;2023-09-18T15:45:46;22.00;99.90
52621;DHT22;38515;53.160;6.990;2023-09-18T15:48:12;21.90;99.90
52621;DHT22;38515;53.160;6.990;2023-09-18T15:50:38;21.90;99.90
52621;DHT22;38515;53.160;6.990;2023-09-18T15:53:04;21.80;99.90